createdAt,value
2022-12-31T00:02:01.153Z,30.40
2022-12-31T00:04:28.163Z,30.25
2022-12-31T00:06:55.391Z,30.00
2022-12-31T00:09:28.989Z,30.23
2022-12-31T00:11:56.594Z,31.42
2022-12-31T00:14:24.289Z,30.23
2022-12-31T00:16:58.129Z,30.27
2022-12-31T00:19:25.126Z,32.17
2022-12-31T00:21:59.035Z,34.42
2022-12-31T00:24:26.920Z,31.98
2022-12-31T00:27:01.391Z,29.80
2022-12-31T00:29:28.486Z,29.25
2022-12-31T00:32:02.469Z,28.40
2022-12-31T00:34:30.500Z,27.10
2022-12-31T00:37:04.336Z,28.10
2022-12-31T00:39:31.766Z,26.08
2022-12-31T00:42:05.232Z,29.73
2022-12-31T00:44:32.668Z,31.13
2022-12-31T00:47:05.999Z,30.35
2022-12-31T00:49:33.282Z,27.75
2022-12-31T00:52:00.409Z,27.05
2022-12-31T00:54:33.991Z,29.88
2022-12-31T00:57:00.884Z,29.30
2022-12-31T00:59:35.131Z,29.83
2022-12-31T01:02:02.633Z,29.30
2022-12-31T01:04:36.100Z,29.35
2022-12-31T01:07:04.493Z,30.33
2022-12-31T01:09:38.323Z,28.50
2022-12-31T01:12:12.090Z,31.08
2022-12-31T01:14:45.008Z,30.23
2022-12-31T01:17:12.767Z,31.42
2022-12-31T01:19:47.232Z,34.17
2022-12-31T01:22:14.871Z,33.00
2022-12-31T01:24:42.738Z,36.78
2022-12-31T01:27:16.998Z,35.45
2022-12-31T01:29:50.659Z,33.47
2022-12-31T01:32:17.592Z,30.20
2022-12-31T01:34:51.056Z,33.28
2022-12-31T01:37:25.003Z,27.20
2022-12-31T01:39:53.340Z,26.80
2022-12-31T01:42:20.456Z,26.75
2022-12-31T01:45:01.058Z,26.42
2022-12-31T01:47:47.738Z,28.15
2022-12-31T01:50:34.015Z,27.52
2022-12-31T01:53:10.057Z,27.38
2022-12-31T01:55:45.052Z,27.35
2022-12-31T01:58:23.055Z,26.02
2022-12-31T02:00:50.831Z,27.13
2022-12-31T02:03:25.118Z,26.98
2022-12-31T02:06:14.438Z,27.95
2022-12-31T02:12:39.067Z,27.48
2022-12-31T02:15:06.900Z,28.23
2022-12-31T02:18:15.594Z,27.20
2022-12-31T02:21:14.923Z,27.33
2022-12-31T02:24:02.063Z,27.45
2022-12-31T02:27:28.039Z,28.98
2022-12-31T02:30:13.027Z,27.17
2022-12-31T02:32:59.144Z,27.10
2022-12-31T02:35:30.992Z,28.45
2022-12-31T02:38:22.174Z,27.40
2022-12-31T02:40:49.190Z,28.13
2022-12-31T02:43:30.417Z,27.42
2022-12-31T02:46:23.263Z,26.50
2022-12-31T02:49:03.081Z,27.33
2022-12-31T02:51:53.321Z,27.25
2022-12-31T02:54:40.060Z,26.85
2022-12-31T02:57:30.654Z,26.42
2022-12-31T03:00:10.708Z,24.88
2022-12-31T03:02:39.034Z,26.70
2022-12-31T03:05:13.086Z,26.77
2022-12-31T03:07:41.367Z,26.85
2022-12-31T03:10:15.046Z,29.55
2022-12-31T03:12:50.498Z,26.95
2022-12-31T03:15:32.757Z,26.05
2022-12-31T03:18:22.039Z,27.92
2022-12-31T03:20:50.612Z,26.80
2022-12-31T03:23:29.753Z,27.67
2022-12-31T03:25:58.792Z,28.70
2022-12-31T03:28:28.485Z,29.42
2022-12-31T03:31:06.913Z,28.23
2022-12-31T03:33:37.803Z,26.05
2022-12-31T03:36:14.271Z,26.83
2022-12-31T03:38:41.546Z,28.63
2022-12-31T03:41:17.126Z,27.70
2022-12-31T03:43:50.064Z,27.27
2022-12-31T03:46:17.063Z,27.25
2022-12-31T03:48:50.101Z,26.52
2022-12-31T03:51:17.042Z,25.80
2022-12-31T03:53:50.052Z,27.05
2022-12-31T03:56:23.111Z,27.63
2022-12-31T03:58:50.035Z,28.88
2022-12-31T04:01:17.033Z,28.85
2022-12-31T04:03:50.046Z,29.40
2022-12-31T04:06:16.954Z,30.67
2022-12-31T04:08:43.860Z,29.05
2022-12-31T04:11:20.848Z,30.10
2022-12-31T04:13:55.180Z,29.73
2022-12-31T04:16:28.121Z,29.98
2022-12-31T04:18:55.033Z,30.48
2022-12-31T04:21:34.667Z,27.33
2022-12-31T04:24:02.063Z,28.70
2022-12-31T04:26:36.121Z,29.05
2022-12-31T04:29:03.097Z,29.48
2022-12-31T04:31:30.020Z,29.27
2022-12-31T04:34:03.112Z,28.10
2022-12-31T04:36:30.003Z,28.05
2022-12-31T04:39:03.124Z,28.48
2022-12-31T04:41:30.001Z,29.63
2022-12-31T04:44:05.082Z,27.83
2022-12-31T04:46:33.108Z,28.05
2022-12-31T04:49:00.243Z,27.77
2022-12-31T04:51:34.136Z,26.40
2022-12-31T04:54:07.103Z,26.35
2022-12-31T04:56:34.005Z,25.50
2022-12-31T04:59:07.183Z,23.90
2022-12-31T05:01:34.176Z,25.55
2022-12-31T05:04:01.167Z,25.10
2022-12-31T05:06:34.140Z,25.40
2022-12-31T05:09:01.014Z,24.92
2022-12-31T05:11:27.881Z,25.52
2022-12-31T05:14:01.120Z,27.20
2022-12-31T05:16:28.063Z,25.00
2022-12-31T05:19:01.143Z,25.90
2022-12-31T05:21:28.011Z,24.45
2022-12-31T05:24:01.098Z,24.42
2022-12-31T05:26:28.009Z,25.67
2022-12-31T05:29:01.125Z,25.77
2022-12-31T05:31:28.099Z,26.05
2022-12-31T05:34:01.133Z,26.13
2022-12-31T05:36:28.021Z,24.70
2022-12-31T05:39:01.099Z,25.35
2022-12-31T05:41:27.991Z,24.08
2022-12-31T05:44:01.148Z,24.13
2022-12-31T05:46:28.029Z,23.80
2022-12-31T05:48:54.968Z,24.60
2022-12-31T05:51:28.144Z,24.70
2022-12-31T05:53:55.056Z,24.40
2022-12-31T05:56:21.926Z,23.30
2022-12-31T05:58:55.111Z,24.10
2022-12-31T06:01:22.141Z,24.55
2022-12-31T06:03:49.119Z,24.48
2022-12-31T06:06:22.155Z,24.73
2022-12-31T06:08:59.209Z,23.80
2022-12-31T06:11:26.108Z,22.33
2022-12-31T06:13:59.120Z,21.75
2022-12-31T06:16:26.102Z,23.75
2022-12-31T06:18:59.177Z,23.15
2022-12-31T06:21:32.169Z,23.05
2022-12-31T06:23:59.171Z,21.42
2022-12-31T06:26:27.123Z,22.90
2022-12-31T06:29:01.149Z,21.17
2022-12-31T06:31:28.137Z,20.65
2022-12-31T06:34:02.227Z,20.02
2022-12-31T06:36:35.146Z,21.00
2022-12-31T06:39:02.010Z,21.70
2022-12-31T06:41:28.856Z,21.00
2022-12-31T06:44:02.145Z,19.80
2022-12-31T06:46:29.146Z,20.58
2022-12-31T06:49:02.214Z,22.42
2022-12-31T06:51:29.103Z,20.67
2022-12-31T06:54:02.143Z,24.25
2022-12-31T06:56:34.528Z,22.00
2022-12-31T06:59:09.166Z,21.02
2022-12-31T07:02:23.017Z,21.42
2022-12-31T07:05:05.214Z,20.80
2022-12-31T07:08:03.133Z,22.08
2022-12-31T07:10:55.906Z,22.27
2022-12-31T07:13:58.230Z,22.08
2022-12-31T07:16:36.333Z,22.38
2022-12-31T07:19:31.199Z,22.15
2022-12-31T07:22:06.197Z,24.13
2022-12-31T07:24:33.516Z,24.23
2022-12-31T07:27:38.208Z,22.52
2022-12-31T07:30:12.293Z,22.65
2022-12-31T07:33:28.215Z,23.77
2022-12-31T07:36:26.242Z,23.60
2022-12-31T07:39:21.197Z,24.63
2022-12-31T07:42:07.164Z,26.15
2022-12-31T07:45:10.667Z,21.77
2022-12-31T07:47:45.189Z,21.35
2022-12-31T07:50:17.662Z,22.05
2022-12-31T07:52:51.169Z,25.65
2022-12-31T07:55:24.207Z,21.33
2022-12-31T07:58:35.231Z,19.90
2022-12-31T08:01:02.263Z,19.75
2022-12-31T08:03:48.205Z,19.73
2022-12-31T08:06:32.609Z,18.98
2022-12-31T08:09:31.240Z,20.20
2022-12-31T08:12:00.014Z,19.42
2022-12-31T08:14:37.192Z,21.40
2022-12-31T08:17:04.465Z,22.98
2022-12-31T08:19:32.602Z,22.08
2022-12-31T08:22:33.235Z,21.17
2022-12-31T08:25:39.305Z,20.58
2022-12-31T08:28:47.246Z,22.13
2022-12-31T08:31:25.271Z,20.67
2022-12-31T08:34:13.812Z,20.73
2022-12-31T08:37:02.200Z,21.30
2022-12-31T08:39:42.258Z,21.67
2022-12-31T08:42:43.224Z,21.67
2022-12-31T08:45:15.693Z,20.02
2022-12-31T08:48:07.210Z,19.45
2022-12-31T08:50:34.364Z,16.45
2022-12-31T08:53:01.996Z,17.38
2022-12-31T08:55:36.225Z,16.95
2022-12-31T08:58:37.260Z,19.52
2022-12-31T09:01:11.321Z,18.58
2022-12-31T09:04:11.895Z,17.58
2022-12-31T09:06:50.261Z,18.75
2022-12-31T09:09:54.235Z,18.60
2022-12-31T09:12:32.617Z,18.42
2022-12-31T09:15:21.230Z,21.75
2022-12-31T09:17:50.051Z,22.70
2022-12-31T09:20:44.237Z,21.40
2022-12-31T09:23:12.605Z,21.25
2022-12-31T09:25:58.217Z,19.77
2022-12-31T09:28:45.246Z,18.30
2022-12-31T09:31:59.300Z,18.40
2022-12-31T09:34:50.761Z,17.50
2022-12-31T09:37:41.217Z,17.63
2022-12-31T09:40:32.510Z,16.52
2022-12-31T09:43:39.253Z,16.15
2022-12-31T09:46:15.086Z,17.73
2022-12-31T09:49:31.269Z,16.60
2022-12-31T09:52:37.215Z,16.85
2022-12-31T09:55:31.901Z,17.60
2022-12-31T09:58:25.300Z,16.10
2022-12-31T10:00:53.697Z,17.98
2022-12-31T10:03:41.263Z,17.40
2022-12-31T10:06:52.273Z,19.98
2022-12-31T10:09:42.268Z,17.77
2022-12-31T10:13:16.273Z,18.60
2022-12-31T10:16:51.344Z,17.65
2022-12-31T10:19:39.577Z,18.25
2022-12-31T10:22:23.276Z,17.88
2022-12-31T10:25:39.035Z,16.98
2022-12-31T10:28:22.279Z,18.17
2022-12-31T10:31:29.920Z,17.55
2022-12-31T10:34:14.276Z,19.60
2022-12-31T10:37:16.251Z,28.73
2022-12-31T10:39:55.457Z,29.95
2022-12-31T10:42:51.292Z,29.35
2022-12-31T10:45:28.403Z,31.58
2022-12-31T10:48:13.298Z,33.38
2022-12-31T10:50:54.813Z,30.17
2022-12-31T10:54:22.292Z,28.70
2022-12-31T10:57:20.242Z,25.42
2022-12-31T11:00:29.242Z,25.67
2022-12-31T11:03:30.311Z,27.40
2022-12-31T11:06:34.251Z,27.85
2022-12-31T11:09:39.293Z,28.85
2022-12-31T11:12:39.446Z,28.88
2022-12-31T11:15:20.929Z,29.33
2022-12-31T11:18:27.891Z,26.95
2022-12-31T11:21:28.757Z,26.70
2022-12-31T11:24:28.430Z,24.75
2022-12-31T11:27:02.273Z,25.25
2022-12-31T11:30:18.292Z,24.45
2022-12-31T11:33:24.470Z,25.05
2022-12-31T11:37:10.315Z,23.67
2022-12-31T11:40:12.667Z,25.60
2022-12-31T11:43:15.280Z,24.17
2022-12-31T11:46:21.921Z,25.45
2022-12-31T11:49:39.322Z,28.30
2022-12-31T11:52:31.765Z,24.88
2022-12-31T11:55:19.347Z,23.75
2022-12-31T11:57:50.576Z,23.02
2022-12-31T12:00:33.280Z,21.77
2022-12-31T12:03:10.352Z,22.67
2022-12-31T12:05:38.646Z,23.42
2022-12-31T12:08:12.349Z,23.52
2022-12-31T12:10:50.111Z,23.20
2022-12-31T12:13:33.327Z,22.75
2022-12-31T12:16:06.499Z,22.48
2022-12-31T12:19:12.335Z,23.23
2022-12-31T12:21:53.292Z,22.80
2022-12-31T12:24:36.329Z,23.80
2022-12-31T12:27:03.251Z,23.83
2022-12-31T12:29:41.312Z,20.63
2022-12-31T12:32:20.813Z,20.52
2022-12-31T12:34:54.359Z,19.75
2022-12-31T12:37:24.245Z,20.20
2022-12-31T12:40:06.301Z,19.75
2022-12-31T12:42:33.268Z,19.73
2022-12-31T12:45:23.348Z,18.58
2022-12-31T12:48:02.317Z,18.88
2022-12-31T12:50:43.494Z,19.50
2022-12-31T12:53:39.506Z,18.42
2022-12-31T12:56:19.327Z,17.85
2022-12-31T12:59:05.322Z,17.02
2022-12-31T13:01:41.244Z,18.05
2022-12-31T13:05:11.345Z,17.45
2022-12-31T13:08:18.366Z,16.60
2022-12-31T13:11:05.146Z,17.75
2022-12-31T13:14:25.342Z,18.52
2022-12-31T13:17:20.027Z,18.73
2022-12-31T13:19:57.334Z,17.17
2022-12-31T13:22:34.330Z,17.33
2022-12-31T13:25:13.349Z,17.73
2022-12-31T13:27:43.438Z,17.67
2022-12-31T13:30:43.350Z,17.45
2022-12-31T13:33:24.437Z,16.50
2022-12-31T13:36:09.326Z,17.70
2022-12-31T13:38:41.368Z,17.58
2022-12-31T13:41:29.379Z,16.90
2022-12-31T13:44:39.336Z,16.77
2022-12-31T13:47:20.171Z,17.75
2022-12-31T13:50:14.973Z,17.75
2022-12-31T13:53:05.608Z,17.23
2022-12-31T13:55:56.832Z,17.30
2022-12-31T13:58:35.404Z,18.48
2022-12-31T14:01:32.102Z,17.05
2022-12-31T14:04:27.467Z,17.48
2022-12-31T14:07:07.895Z,18.73
2022-12-31T14:09:41.428Z,19.67
2022-12-31T14:12:23.211Z,29.25
2022-12-31T14:15:32.425Z,41.50
2022-12-31T14:18:36.430Z,44.00
2022-12-31T14:21:48.534Z,29.67
2022-12-31T14:24:53.512Z,25.73
2022-12-31T14:27:47.480Z,28.02
2022-12-31T14:30:20.431Z,29.35
2022-12-31T14:33:30.447Z,31.88
2022-12-31T14:36:26.409Z,30.33
2022-12-31T14:39:11.520Z,32.83
2022-12-31T14:41:52.124Z,31.02
2022-12-31T14:44:49.540Z,28.85
2022-12-31T14:47:50.254Z,28.10
2022-12-31T14:50:29.477Z,24.40
2022-12-31T14:53:05.787Z,22.55
2022-12-31T14:55:46.523Z,22.45
2022-12-31T14:58:31.488Z,21.20
2022-12-31T15:01:13.487Z,23.23
2022-12-31T15:03:45.828Z,24.35
2022-12-31T15:06:25.460Z,29.45
2022-12-31T15:09:38.925Z,26.50
2022-12-31T15:12:23.399Z,21.73
2022-12-31T15:15:11.446Z,21.65
2022-12-31T15:17:48.767Z,21.15
2022-12-31T15:20:34.396Z,21.10
2022-12-31T15:23:07.453Z,21.98
2022-12-31T15:25:41.100Z,27.73
2022-12-31T15:28:39.436Z,23.98
2022-12-31T15:31:18.159Z,25.20
2022-12-31T15:34:13.510Z,24.98
2022-12-31T15:36:59.456Z,29.10
2022-12-31T15:39:32.588Z,26.58
2022-12-31T15:45:01.205Z,24.50
2022-12-31T15:47:44.054Z,24.35
2022-12-31T15:50:35.470Z,25.85
2022-12-31T15:53:03.251Z,26.52
2022-12-31T15:55:52.559Z,24.98
2022-12-31T15:58:31.888Z,25.92
2022-12-31T16:01:29.538Z,27.02
2022-12-31T16:04:12.642Z,26.35
2022-12-31T16:06:50.711Z,25.23
2022-12-31T16:09:24.347Z,28.52
2022-12-31T16:11:58.473Z,41.03
2022-12-31T16:14:36.797Z,40.38
2022-12-31T16:17:10.433Z,48.95
2022-12-31T16:19:43.638Z,52.55
2022-12-31T16:22:22.434Z,52.58
2022-12-31T16:25:30.116Z,50.17
2022-12-31T16:28:01.537Z,50.35
2022-12-31T16:30:39.433Z,54.42
2022-12-31T16:33:06.923Z,103.93
2022-12-31T16:35:42.436Z,129.50
2022-12-31T16:38:14.474Z,118.10
2022-12-31T16:41:21.486Z,97.45
2022-12-31T16:43:49.441Z,77.07
2022-12-31T16:46:26.531Z,61.00
2022-12-31T16:49:06.740Z,56.03
2022-12-31T16:51:40.463Z,49.47
2022-12-31T16:54:07.355Z,50.83
2022-12-31T16:56:45.527Z,50.13
2022-12-31T16:59:39.477Z,48.30
2022-12-31T17:02:16.380Z,46.22
2022-12-31T17:04:58.807Z,51.20
2022-12-31T17:07:32.150Z,51.22
2022-12-31T17:10:20.497Z,78.20
2022-12-31T17:13:31.482Z,143.27
2022-12-31T17:15:58.528Z,103.40
2022-12-31T17:18:42.483Z,97.63
2022-12-31T17:21:09.773Z,81.50
2022-12-31T17:23:44.477Z,54.67
2022-12-31T17:26:14.143Z,34.85
2022-12-31T17:28:58.501Z,29.58
2022-12-31T17:31:31.312Z,26.23
2022-12-31T17:34:20.463Z,28.25
2022-12-31T17:37:09.451Z,89.35
2022-12-31T17:39:52.506Z,133.23
2022-12-31T17:42:43.456Z,123.65
2022-12-31T17:45:20.616Z,92.78
2022-12-31T17:47:55.487Z,91.22
2022-12-31T17:50:31.519Z,67.70
2022-12-31T17:53:11.248Z,64.45
2022-12-31T17:55:44.465Z,68.15
2022-12-31T17:58:39.630Z,70.55
2022-12-31T18:01:07.633Z,63.45
2022-12-31T18:03:34.739Z,54.53
2022-12-31T18:06:14.510Z,45.88
2022-12-31T18:08:43.416Z,30.45
2022-12-31T18:11:28.546Z,24.60
2022-12-31T18:13:55.516Z,22.42
2022-12-31T18:16:22.467Z,20.90
2022-12-31T18:18:56.480Z,20.60
2022-12-31T18:21:37.563Z,20.98
2022-12-31T18:24:11.639Z,28.27
2022-12-31T18:26:38.566Z,37.55
2022-12-31T18:29:24.481Z,39.17
2022-12-31T18:31:51.524Z,40.15
2022-12-31T18:34:25.562Z,37.63
2022-12-31T18:36:52.480Z,38.63
2022-12-31T18:39:25.726Z,43.22
2022-12-31T18:41:52.621Z,42.63
2022-12-31T18:44:19.458Z,42.38
2022-12-31T18:46:52.576Z,43.83
2022-12-31T18:49:19.439Z,43.65
2022-12-31T18:51:46.280Z,43.92
2022-12-31T18:54:19.530Z,41.97
2022-12-31T18:56:48.424Z,43.30
2022-12-31T18:59:24.494Z,40.65
2022-12-31T19:01:51.493Z,40.60
2022-12-31T19:04:28.319Z,37.70
2022-12-31T19:06:55.619Z,38.20
2022-12-31T19:09:46.379Z,40.92
2022-12-31T19:12:14.203Z,42.00
2022-12-31T19:14:47.476Z,41.58
2022-12-31T19:17:20.510Z,41.72
2022-12-31T19:19:47.362Z,41.28
2022-12-31T19:22:21.644Z,41.72
2022-12-31T19:24:55.539Z,43.97
2022-12-31T19:27:22.461Z,46.67
2022-12-31T19:29:55.631Z,42.90
2022-12-31T19:32:22.564Z,40.92
2022-12-31T19:34:49.516Z,39.15
2022-12-31T19:37:22.567Z,39.92
2022-12-31T19:39:49.478Z,38.30
2022-12-31T19:42:22.561Z,36.88
2022-12-31T19:44:49.419Z,33.83
2022-12-31T19:47:22.560Z,35.10
2022-12-31T19:49:49.445Z,35.63
2022-12-31T19:52:22.551Z,33.42
2022-12-31T19:54:49.565Z,31.90
2022-12-31T19:57:22.536Z,32.25
2022-12-31T19:59:56.235Z,32.25
2022-12-31T20:02:29.703Z,32.58
2022-12-31T20:04:56.722Z,31.35
2022-12-31T20:07:30.548Z,32.90
2022-12-31T20:10:03.587Z,33.05
2022-12-31T20:12:42.242Z,32.20
2022-12-31T20:15:17.535Z,30.70
2022-12-31T20:17:51.593Z,30.48
2022-12-31T20:20:19.326Z,30.67
2022-12-31T20:22:52.571Z,29.13
2022-12-31T20:25:19.512Z,30.50
2022-12-31T20:27:52.649Z,31.17
2022-12-31T20:30:19.603Z,29.52
2022-12-31T20:32:46.545Z,29.65
2022-12-31T20:35:19.572Z,29.33
2022-12-31T20:37:46.726Z,29.92
2022-12-31T20:40:23.025Z,31.63
2022-12-31T20:42:50.761Z,33.33
2022-12-31T20:45:25.542Z,46.03
2022-12-31T20:48:00.408Z,50.33
2022-12-31T20:50:27.385Z,43.45
2022-12-31T20:53:01.616Z,37.85
2022-12-31T20:55:29.605Z,34.25
2022-12-31T20:58:04.382Z,34.22
2022-12-31T21:00:31.429Z,33.95
2022-12-31T21:03:18.664Z,31.95
2022-12-31T21:05:54.648Z,31.45
2022-12-31T21:08:34.491Z,31.73
2022-12-31T21:11:03.181Z,33.10
2022-12-31T21:13:36.592Z,33.63
2022-12-31T21:16:03.769Z,33.72
2022-12-31T21:18:30.860Z,32.58
2022-12-31T21:21:04.632Z,40.17
2022-12-31T21:23:31.533Z,43.63
2022-12-31T21:26:04.677Z,40.22
2022-12-31T21:28:32.416Z,39.35
2022-12-31T21:31:08.133Z,41.42
2022-12-31T21:33:35.390Z,48.30
2022-12-31T21:36:05.026Z,45.53
2022-12-31T21:38:40.001Z,45.30
2022-12-31T21:41:08.095Z,47.40
2022-12-31T21:43:42.158Z,45.35
2022-12-31T21:46:18.140Z,39.92
2022-12-31T21:48:53.426Z,40.85
2022-12-31T21:51:26.780Z,37.03
2022-12-31T21:53:53.840Z,35.47
2022-12-31T21:56:21.057Z,36.40
2022-12-31T21:59:03.599Z,33.75
2022-12-31T22:01:37.765Z,32.13
2022-12-31T22:04:35.146Z,37.13
2022-12-31T22:07:06.215Z,33.22
2022-12-31T22:09:39.641Z,31.52
2022-12-31T22:12:08.364Z,31.13
2022-12-31T22:15:15.989Z,30.50
2022-12-31T22:17:35.612Z,28.48
2022-12-31T22:20:26.582Z,27.58
2022-12-31T22:22:55.629Z,28.58
2022-12-31T22:25:22.709Z,27.50
2022-12-31T22:28:36.254Z,26.30
2022-12-31T22:30:48.831Z,29.92
2022-12-31T22:33:23.898Z,29.85
2022-12-31T22:36:12.987Z,28.00
2022-12-31T22:38:40.245Z,31.40
2022-12-31T22:41:24.624Z,32.42
2022-12-31T22:44:02.699Z,29.75
2022-12-31T22:46:44.728Z,28.65
2022-12-31T22:49:24.687Z,27.90
2022-12-31T22:51:55.784Z,26.38
2022-12-31T22:54:32.932Z,25.40
2022-12-31T22:57:01.257Z,25.23
2022-12-31T22:59:36.464Z,23.63
2022-12-31T23:02:03.531Z,24.98
2022-12-31T23:04:31.591Z,23.33
2022-12-31T23:07:06.694Z,24.40
2022-12-31T23:09:33.750Z,27.98
2022-12-31T23:12:07.616Z,31.90
2022-12-31T23:14:42.387Z,43.22
2022-12-31T23:17:29.520Z,37.85
2022-12-31T23:20:06.643Z,54.28
2022-12-31T23:22:40.709Z,63.10
2022-12-31T23:25:14.687Z,39.65
2022-12-31T23:27:41.630Z,42.22
2022-12-31T23:30:15.658Z,38.72
2022-12-31T23:32:42.542Z,35.35
2022-12-31T23:35:15.737Z,32.97
2022-12-31T23:37:42.600Z,29.50
2022-12-31T23:40:21.483Z,26.92
2022-12-31T23:42:50.130Z,26.40
2022-12-31T23:45:29.566Z,26.38
2022-12-31T23:48:07.275Z,29.25
2022-12-31T23:50:34.474Z,28.60
2022-12-31T23:53:07.741Z,27.58
2022-12-31T23:55:41.694Z,31.65
2022-12-31T23:58:09.403Z,32.17
